Time;durP1;ratioP1;P1;durP2;ratioP2;P2;SDS_P1;SDS_P2;PMS_P1;PMS_P2;Temp;Humidity;BMP_temperature;BMP_pressure;BME280_temperature;BME280_humidity;BME280_pressure;Samples;Min_cycle;Max_cycle;Signal;HPM_P1;HPM_P2
2023/06/30 00:01:17;;;;;;;23.6;15.5;;;;;;;19.29;94.05273;935.5499;;;;
2023/06/30 00:03:45;;;;;;;25.8;17.1;;;;;;;19.24;95.4043;935.4409;;;;
2023/06/30 00:06:07;;;;;;;27.9;17.1;;;;;;;19.24;95.34766;935.4456;;;;
2023/06/30 00:08:33;;;;;;;28.7;17.5;;;;;;;19.24;95.28711;935.4384;;;;
2023/06/30 00:10:58;;;;;;;26.2;17.7;;;;;;;19.24;94.54199;935.3571;;;;
2023/06/30 00:13:24;;;;;;;25.8;17.1;;;;;;;19.22;93.73438;935.3606;;;;
2023/06/30 00:15:49;;;;;;;26.1;16.6;;;;;;;19.24;93.22559;935.3771;;;;
2023/06/30 00:18:15;;;;;;;30.2;18.4;;;;;;;19.3;93.87793;935.3826;;;;
2023/06/30 00:20:40;;;;;;;29.7;19.1;;;;;;;19.31;94.4873;935.3663;;;;
2023/06/30 00:23:08;;;;;;;29.1;18.6;;;;;;;19.26;94.73438;935.3344;;;;
2023/06/30 00:25:31;;;;;;;28.8;18.1;;;;;;;19.26;95.16504;935.2723;;;;
2023/06/30 00:27:56;;;;;;;30.6;19.3;;;;;;;19.15;96.61914;935.213;;;;
2023/06/30 00:30:21;;;;;;;28.3;18.9;;;;;;;19.1;96.99121;935.2023;;;;
2023/06/30 00:32:48;;;;;;;29;18.6;;;;;;;19.13;96.47461;935.1297;;;;
2023/06/30 00:35:13;;;;;;;28.5;19;;;;;;;19.2;95.71973;935.1221;;;;
2023/06/30 00:37:42;;;;;;;28.1;18.6;;;;;;;19.16;94.84082;935.1239;;;;
2023/06/30 00:40:14;;;;;;;27.9;18.8;;;;;;;19.17;94.79395;935.0962;;;;
2023/06/30 00:42:41;;;;;;;29.8;19.4;;;;;;;19.13;95.77637;935.1007;;;;
2023/06/30 00:45:06;;;;;;;29.5;19.2;;;;;;;19.05;96.1543;935.0367;;;;
2023/06/30 00:47:32;;;;;;;28.5;18.8;;;;;;;18.87;96.49707;934.9149;;;;
2023/06/30 00:49:58;;;;;;;28.6;18.4;;;;;;;18.58;97.71484;934.9453;;;;
2023/06/30 00:52:23;;;;;;;29.5;18;;;;;;;18.46;98.64063;934.9211;;;;
2023/06/30 00:54:51;;;;;;;29.2;18.4;;;;;;;18.37;99.65723;934.8706;;;;
2023/06/30 00:57:16;;;;;;;30.9;19.1;;;;;;;18.17;100;934.8415;;;;
2023/06/30 00:59:43;;;;;;;27.7;18.5;;;;;;;18.19;100;934.8215;;;;
2023/06/30 01:02:08;;;;;;;31.8;19;;;;;;;18.33;100;934.8594;;;;
2023/06/30 01:04:35;;;;;;;30;18.1;;;;;;;18.46;99.60547;934.8718;;;;
2023/06/30 01:07:00;;;;;;;28.9;18.4;;;;;;;18.43;99.18066;934.8419;;;;
2023/06/30 01:09:25;;;;;;;30.4;18.9;;;;;;;18.47;98.69336;934.8423;;;;
2023/06/30 01:11:50;;;;;;;26.5;17.4;;;;;;;18.5;98.57129;934.7505;;;;
2023/06/30 01:14:16;;;;;;;27.4;17.5;;;;;;;18.57;97.99219;934.785;;;;
2023/06/30 01:16:41;;;;;;;29.3;18.1;;;;;;;18.59;97.93848;934.8272;;;;
2023/06/30 01:19:08;;;;;;;28.3;18.2;;;;;;;18.48;98.4375;934.7657;;;;
2023/06/30 01:21:33;;;;;;;28.3;18.3;;;;;;;18.49;98.64844;934.5936;;;;
2023/06/30 01:23:58;;;;;;;26.4;17.9;;;;;;;18.48;99.47266;934.6713;;;;
2023/06/30 01:26:24;;;;;;;27.7;18.2;;;;;;;18.5;99.45508;934.665;;;;
2023/06/30 01:28:50;;;;;;;28.5;17.7;;;;;;;18.61;98.59375;934.662;;;;
2023/06/30 01:31:14;;;;;;;28.8;19.1;;;;;;;18.64;98.61133;934.6764;;;;
2023/06/30 01:33:39;;;;;;;28;17.9;;;;;;;18.73;97.67969;934.7328;;;;
2023/06/30 01:36:04;;;;;;;28.3;18.1;;;;;;;18.73;97.68945;934.6321;;;;
2023/06/30 01:38:29;;;;;;;27.2;18.2;;;;;;;18.58;97.19238;934.5639;;;;
2023/06/30 01:40:54;;;;;;;29.4;18.8;;;;;;;18.64;97.10156;934.5611;;;;
2023/06/30 01:43:19;;;;;;;28.3;18.3;;;;;;;18.64;97.07813;934.5924;;;;
2023/06/30 01:45:47;;;;;;;32.6;18.5;;;;;;;18.75;96.09961;934.5413;;;;
2023/06/30 01:48:12;;;;;;;26.9;17.8;;;;;;;18.77;96.43262;934.5413;;;;
2023/06/30 01:50:37;;;;;;;28;17.5;;;;;;;18.79;96.30664;934.5818;;;;
2023/06/30 01:53:02;;;;;;;28.7;18.2;;;;;;;18.87;96.08984;934.6277;;;;
2023/06/30 01:55:28;;;;;;;25.8;16.4;;;;;;;18.8;96.50684;934.655;;;;
2023/06/30 01:57:53;;;;;;;27.7;18;;;;;;;18.79;96.24902;934.6086;;;;
2023/06/30 02:00:18;;;;;;;27.5;18;;;;;;;18.79;96.0625;934.6642;;;;
2023/06/30 02:02:45;;;;;;;28.3;19.1;;;;;;;18.83;95.85156;934.6794;;;;
2023/06/30 02:05:10;;;;;;;25.4;17.4;;;;;;;18.89;96.14258;934.6584;;;;
2023/06/30 02:07:36;;;;;;;27.9;18;;;;;;;18.82;97.95313;934.707;;;;
2023/06/30 02:10:01;;;;;;;26.2;17.8;;;;;;;18.64;98.54102;934.6934;;;;
2023/06/30 02:12:28;;;;;;;26.5;17.6;;;;;;;18.71;98.19727;934.6746;;;;
2023/06/30 02:14:53;;;;;;;26.7;17.6;;;;;;;18.5;98.0459;934.6514;;;;
2023/06/30 02:17:18;;;;;;;27.2;18;;;;;;;18.32;99.55371;934.6785;;;;
2023/06/30 02:19:50;;;;;;;28.3;18.3;;;;;;;18.37;99.58691;934.6546;;;;
2023/06/30 02:22:15;;;;;;;30.1;19.3;;;;;;;18.49;99.46094;934.6205;;;;
2023/06/30 02:24:40;;;;;;;29;18.8;;;;;;;18.51;99.24805;934.5591;;;;
2023/06/30 02:27:08;;;;;;;30.6;20.1;;;;;;;18.54;99.24219;934.5453;;;;
2023/06/30 02:29:32;;;;;;;30.6;19.3;;;;;;;18.68;99.27246;934.5649;;;;
2023/06/30 02:31:58;;;;;;;28.8;19.2;;;;;;;18.72;99.5625;934.5378;;;;
2023/06/30 02:34:23;;;;;;;28;17.9;;;;;;;18.73;99.36621;934.5851;;;;
2023/06/30 02:36:50;;;;;;;28;18.4;;;;;;;18.64;99.27637;934.5698;;;;
2023/06/30 02:39:15;;;;;;;28.2;18.2;;;;;;;18.68;99.51758;934.6641;;;;
2023/06/30 02:41:40;;;;;;;29.1;18.3;;;;;;;18.47;99.78613;934.5569;;;;
2023/06/30 02:44:05;;;;;;;28.1;19;;;;;;;18.34;100;934.5972;;;;
2023/06/30 02:46:30;;;;;;;29.8;19;;;;;;;18.33;100;934.671;;;;
2023/06/30 02:48:56;;;;;;;29.5;18.7;;;;;;;18.39;100;934.7281;;;;
2023/06/30 02:51:21;;;;;;;28.4;18.4;;;;;;;18.52;100;934.663;;;;
2023/06/30 02:53:49;;;;;;;27.8;17.3;;;;;;;18.49;100;934.5387;;;;
2023/06/30 02:56:14;;;;;;;27.2;17.1;;;;;;;18.44;100;934.6169;;;;
2023/06/30 02:58:40;;;;;;;26;18.3;;;;;;;18.35;100;934.6219;;;;
2023/06/30 03:01:07;;;;;;;26.8;18;;;;;;;18.36;100;934.6764;;;;
2023/06/30 03:03:48;;;;;;;25.7;17.3;;;;;;;18.41;100;934.5923;;;;
2023/06/30 03:06:15;;;;;;;28.3;17.9;;;;;;;18.46;100;934.5016;;;;
2023/06/30 03:08:40;;;;;;;24.4;16.4;;;;;;;18.32;100;934.4858;;;;
2023/06/30 03:11:11;;;;;;;27.2;17.7;;;;;;;18.27;100;934.4677;;;;
2023/06/30 03:13:35;;;;;;;27;17.4;;;;;;;18.4;100;934.4844;;;;
2023/06/30 03:16:04;;;;;;;23.8;16.6;;;;;;;18.51;99.47852;934.485;;;;
2023/06/30 03:18:29;;;;;;;25.9;17;;;;;;;18.43;100;934.3848;;;;
2023/06/30 03:20:55;;;;;;;27.2;17.6;;;;;;;18.35;100;934.356;;;;
2023/06/30 03:23:20;;;;;;;26.4;16.7;;;;;;;18.34;99.27734;934.283;;;;
2023/06/30 03:25:46;;;;;;;25;17;;;;;;;18.21;99.37793;934.1973;;;;
2023/06/30 03:28:11;;;;;;;26.7;17.8;;;;;;;18.32;98.06445;934.215;;;;
2023/06/30 03:30:38;;;;;;;28.6;18.2;;;;;;;18.4;98.58203;934.2104;;;;
2023/06/30 03:33:03;;;;;;;27.2;17.8;;;;;;;18.52;97.93555;934.2227;;;;
2023/06/30 03:35:28;;;;;;;24.6;16.8;;;;;;;18.6;98.29102;934.231;;;;
2023/06/30 03:37:53;;;;;;;26.2;16.6;;;;;;;18.47;99.46973;934.2466;;;;
2023/06/30 03:40:20;;;;;;;26;17.6;;;;;;;18.45;100;934.2245;;;;
2023/06/30 03:42:45;;;;;;;24.3;16.9;;;;;;;18.47;99.83984;934.2355;;;;
2023/06/30 03:45:11;;;;;;;24.4;16.2;;;;;;;18.5;98.53418;934.2225;;;;
2023/06/30 03:47:37;;;;;;;23.5;16.1;;;;;;;18.55;98.25781;934.2217;;;;
2023/06/30 03:50:02;;;;;;;25;16.6;;;;;;;18.52;98.64551;934.1791;;;;
2023/06/30 03:52:29;;;;;;;26.4;17.4;;;;;;;18.49;98.86035;934.1694;;;;
2023/06/30 03:54:56;;;;;;;24.6;16.6;;;;;;;18.58;99.69238;934.1163;;;;
2023/06/30 03:57:21;;;;;;;26.5;17.2;;;;;;;18.63;99.32031;934.1468;;;;
2023/06/30 03:59:49;;;;;;;25.7;16.7;;;;;;;18.65;99.33691;934.1446;;;;
2023/06/30 04:02:32;;;;;;;25.4;16.6;;;;;;;18.69;98.84668;934.1167;;;;
2023/06/30 04:05:01;;;;;;;23.8;16.3;;;;;;;18.7;98.28809;934.1014;;;;
2023/06/30 04:07:26;;;;;;;22.8;16.4;;;;;;;18.64;97.8457;934.0441;;;;
2023/06/30 04:09:54;;;;;;;22.2;15.4;;;;;;;18.65;97.39355;934.014;;;;
2023/06/30 04:12:19;;;;;;;22.8;15.5;;;;;;;18.68;97.06445;934.0615;;;;
2023/06/30 04:14:48;;;;;;;22.5;15.3;;;;;;;18.66;97.39551;934.1057;;;;
2023/06/30 04:17:13;;;;;;;21.2;14.8;;;;;;;18.55;98.36035;934.034;;;;
2023/06/30 04:19:39;;;;;;;22.7;14.2;;;;;;;18.62;98.29492;933.9749;;;;
2023/06/30 04:22:04;;;;;;;21.1;14;;;;;;;18.68;98.17969;934.0366;;;;
2023/06/30 04:24:29;;;;;;;21.7;14.3;;;;;;;18.39;99.98828;934.0678;;;;
2023/06/30 04:26:55;;;;;;;23.4;15.2;;;;;;;18.35;100;934.0352;;;;
2023/06/30 04:29:24;;;;;;;20.2;13.7;;;;;;;18.24;100;934.0268;;;;
2023/06/30 04:31:50;;;;;;;21.8;13.9;;;;;;;18.31;100;933.9952;;;;
2023/06/30 04:34:15;;;;;;;20;13.9;;;;;;;18.14;100;934.0261;;;;
2023/06/30 04:36:40;;;;;;;21.2;13.6;;;;;;;18.25;100;934.0218;;;;
2023/06/30 04:40:23;;;;;;;21.7;13.6;;;;;;;18.36;100;933.9752;;;;
2023/06/30 04:42:52;;;;;;;20.3;12.3;;;;;;;18.23;99.15918;933.928;;;;
2023/06/30 04:45:21;;;;;;;20.6;13.6;;;;;;;18.19;100;933.8475;;;;
2023/06/30 04:47:46;;;;;;;19.3;13.3;;;;;;;18.29;100;933.8649;;;;
2023/06/30 04:50:16;;;;;;;19.7;12.9;;;;;;;18.36;100;933.9133;;;;
2023/06/30 04:52:41;;;;;;;23.8;14.4;;;;;;;18.18;100;933.9378;;;;
2023/06/30 04:55:06;;;;;;;22.9;14.4;;;;;;;18.33;100;933.91;;;;
2023/06/30 04:57:31;;;;;;;21.5;13.7;;;;;;;18.35;99.83887;933.8635;;;;
2023/06/30 04:59:59;;;;;;;20.7;13.9;;;;;;;18.3;100;933.8778;;;;
2023/06/30 05:02:23;;;;;;;20.6;14.2;;;;;;;18.32;100;933.866;;;;
2023/06/30 05:04:51;;;;;;;20.6;13.9;;;;;;;18.41;99.46777;933.8571;;;;
2023/06/30 05:07:16;;;;;;;20.2;13.2;;;;;;;18.52;98.75;933.842;;;;
2023/06/30 05:09:41;;;;;;;21.5;14.6;;;;;;;18.45;99.62695;933.878;;;;
2023/06/30 05:12:06;;;;;;;19.4;13.6;;;;;;;18.66;99.69922;933.8582;;;;
2023/06/30 05:14:32;;;;;;;20.6;13.5;;;;;;;18.8;99.45215;933.8095;;;;
2023/06/30 05:16:57;;;;;;;20.6;13.8;;;;;;;18.6;98.97754;933.8293;;;;
2023/06/30 05:19:23;;;;;;;22.2;14.7;;;;;;;18.5;100;933.8884;;;;
2023/06/30 05:21:48;;;;;;;21.7;15.1;;;;;;;18.64;99.54199;933.8289;;;;
2023/06/30 05:24:15;;;;;;;23;14.6;;;;;;;18.75;99.28906;933.7902;;;;
2023/06/30 05:26:41;;;;;;;22;14.8;;;;;;;18.87;98.9082;933.7981;;;;
2023/06/30 05:29:09;;;;;;;21.9;14.6;;;;;;;18.95;98.54395;933.9111;;;;
2023/06/30 05:31:32;;;;;;;20.3;14;;;;;;;18.92;98.87207;933.8589;;;;
2023/06/30 05:34:55;;;;;;;21.2;13.7;;;;;;;18.77;98.90918;933.8597;;;;
2023/06/30 05:38:05;;;;;;;17;12.1;;;;;;;18.56;98.68848;933.8524;;;;
2023/06/30 05:41:15;;;;;;;16.5;11.2;;;;;;;18.65;98.32422;933.8761;;;;
2023/06/30 05:44:24;;;;;;;17.6;11.9;;;;;;;18.63;99.58789;933.8911;;;;
2023/06/30 05:47:34;;;;;;;17.4;11.8;;;;;;;18.61;99.66406;933.946;;;;
2023/06/30 05:50:45;;;;;;;16.5;11.6;;;;;;;18.68;98.83105;934.0181;;;;
2023/06/30 05:53:55;;;;;;;16;11.5;;;;;;;18.62;99.58594;934.0201;;;;
2023/06/30 05:57:05;;;;;;;18.5;12.1;;;;;;;18.59;100;934.0362;;;;
2023/06/30 06:00:14;;;;;;;18.3;12.1;;;;;;;18.61;100;934.1426;;;;
2023/06/30 06:03:30;;;;;;;18.2;11.8;;;;;;;18.52;100;934.1292;;;;
2023/06/30 06:06:40;;;;;;;18.1;11.6;;;;;;;18.35;100;934.0997;;;;
2023/06/30 06:09:49;;;;;;;15.6;10.9;;;;;;;18.42;100;934.1002;;;;
2023/06/30 06:12:15;;;;;;;16.6;11.1;;;;;;;18.49;100;934.1638;;;;
2023/06/30 06:14:41;;;;;;;15.9;10.8;;;;;;;18.49;100;934.1654;;;;
2023/06/30 06:17:06;;;;;;;17.2;11.3;;;;;;;18.52;100;934.233;;;;
2023/06/30 06:19:32;;;;;;;18.9;11;;;;;;;18.64;100;934.1779;;;;
2023/06/30 06:21:57;;;;;;;16.2;11.1;;;;;;;18.65;100;934.209;;;;
2023/06/30 06:24:22;;;;;;;19.3;11.7;;;;;;;18.77;100;934.2397;;;;
2023/06/30 06:26:48;;;;;;;18.8;11.5;;;;;;;18.9;100;934.2234;;;;
2023/06/30 06:29:18;;;;;;;17.4;11.6;;;;;;;19.06;100;934.2269;;;;
2023/06/30 06:31:38;;;;;;;15.4;10.7;;;;;;;19.1;99.01953;934.233;;;;
2023/06/30 06:34:03;;;;;;;15.7;11.1;;;;;;;19.2;97.94629;934.2606;;;;
2023/06/30 06:36:28;;;;;;;17.2;11.8;;;;;;;19.21;98.07715;934.2425;;;;
2023/06/30 06:38:53;;;;;;;15.4;11.2;;;;;;;19.3;97.44434;934.241;;;;
2023/06/30 06:41:19;;;;;;;15.4;10.8;;;;;;;19.44;97.03125;934.2693;;;;
2023/06/30 06:43:44;;;;;;;15.5;10.9;;;;;;;19.48;96.64551;934.2761;;;;
2023/06/30 06:46:09;;;;;;;17.4;11.1;;;;;;;19.58;96.82813;934.2508;;;;
2023/06/30 06:48:34;;;;;;;14.3;10.1;;;;;;;19.71;96.87012;934.2064;;;;
2023/06/30 06:50:59;;;;;;;14.4;10.3;;;;;;;19.84;95.43945;934.2227;;;;
2023/06/30 06:53:26;;;;;;;16.6;9.9;;;;;;;19.82;94.76074;934.207;;;;
2023/06/30 06:56:03;;;;;;;14.9;9.7;;;;;;;19.81;95.2002;934.1918;;;;
2023/06/30 06:58:16;;;;;;;14;9.7;;;;;;;19.9;95.60449;934.1948;;;;
2023/06/30 07:00:42;;;;;;;14.1;9.3;;;;;;;19.99;95.28613;934.1983;;;;
2023/06/30 07:03:07;;;;;;;16.9;11.2;;;;;;;20.09;94.20996;934.1686;;;;
2023/06/30 07:05:33;;;;;;;17.3;10.6;;;;;;;20.29;93.26074;934.1598;;;;
2023/06/30 07:07:58;;;;;;;15.3;9.9;;;;;;;20.36;91.74609;934.1063;;;;
2023/06/30 07:10:23;;;;;;;16.4;10.6;;;;;;;20.59;90.98633;934.1223;;;;
2023/06/30 07:12:52;;;;;;;14.7;10.5;;;;;;;20.77;90.30078;934.0844;;;;
2023/06/30 07:15:17;;;;;;;14.6;10.1;;;;;;;20.82;88.1709;934.03;;;;
2023/06/30 07:17:45;;;;;;;14.9;10;;;;;;;20.99;87.78418;934.0645;;;;
2023/06/30 07:20:10;;;;;;;14.5;9.8;;;;;;;20.96;85.88281;934.0576;;;;
2023/06/30 07:22:38;;;;;;;16.2;10.4;;;;;;;21.03;85.34766;934.0859;;;;
2023/06/30 07:25:06;;;;;;;16.9;10.2;;;;;;;21.09;83.79395;934.0187;;;;
2023/06/30 07:27:28;;;;;;;14.5;9.6;;;;;;;21.41;83.1377;934.0356;;;;
2023/06/30 07:29:54;;;;;;;15.5;10;;;;;;;22.15;78.5166;934.0239;;;;
2023/06/30 07:32:19;;;;;;;14.1;8.9;;;;;;;22.51;77.41895;933.9964;;;;
2023/06/30 07:34:47;;;;;;;12.4;8.3;;;;;;;22.94;76.22559;933.931;;;;
2023/06/30 07:37:12;;;;;;;15.5;10.5;;;;;;;23.29;75.53418;933.9041;;;;
2023/06/30 07:39:37;;;;;;;13.1;9;;;;;;;24.07;71.87402;933.9745;;;;
2023/06/30 07:42:02;;;;;;;11.1;7.6;;;;;;;24.46;68.0127;933.9331;;;;
2023/06/30 07:44:28;;;;;;;11.1;7.4;;;;;;;24.99;68.35352;934.0203;;;;
2023/06/30 07:46:54;;;;;;;12.6;8.7;;;;;;;25.03;66.1875;933.9183;;;;
2023/06/30 07:49:20;;;;;;;12.5;8.7;;;;;;;24.95;65.63379;934.0107;;;;
2023/06/30 07:51:45;;;;;;;12.3;8;;;;;;;25.24;64.54297;933.9625;;;;
2023/06/30 07:54:10;;;;;;;11.2;7.5;;;;;;;24.78;64.59473;934.0087;;;;
2023/06/30 07:56:37;;;;;;;11.3;7.6;;;;;;;25.03;68.84277;933.9141;;;;
2023/06/30 07:59:02;;;;;;;11.9;7.9;;;;;;;24.84;65.24023;933.93;;;;
2023/06/30 08:01:30;;;;;;;10.6;7.4;;;;;;;25.47;65.24902;933.873;;;;
2023/06/30 08:04:00;;;;;;;11.1;7.4;;;;;;;25.25;64.10645;933.8557;;;;
2023/06/30 08:06:25;;;;;;;10.8;7.3;;;;;;;24.26;65.89648;933.905;;;;
2023/06/30 08:08:50;;;;;;;9.4;6.6;;;;;;;24.48;66.12891;933.8736;;;;
2023/06/30 08:11:19;;;;;;;9.1;6.4;;;;;;;25;68.99121;933.9252;;;;
2023/06/30 08:13:45;;;;;;;8.8;6.5;;;;;;;25.24;68.26074;933.909;;;;
2023/06/30 08:16:10;;;;;;;9.2;6.2;;;;;;;25.39;68.33301;933.8867;;;;
2023/06/30 08:18:35;;;;;;;8.1;6.4;;;;;;;25.93;66.3916;933.892;;;;
2023/06/30 08:21:03;;;;;;;10;6.5;;;;;;;26.5;61.04199;933.8571;;;;
2023/06/30 08:23:28;;;;;;;9.8;7;;;;;;;25.95;62.24414;933.8267;;;;
2023/06/30 08:25:55;;;;;;;10.8;6.8;;;;;;;25.22;64.79883;933.8022;;;;
2023/06/30 08:28:19;;;;;;;9;6.8;;;;;;;25.41;62.66602;933.8203;;;;
2023/06/30 08:30:47;;;;;;;9.1;6.8;;;;;;;25.76;63.23438;933.8444;;;;
2023/06/30 08:33:13;;;;;;;10.4;7;;;;;;;26.16;59.24414;933.7603;;;;
2023/06/30 08:35:39;;;;;;;8.6;6.2;;;;;;;25.29;65.48242;933.8058;;;;
2023/06/30 08:38:04;;;;;;;9.1;6.9;;;;;;;25.3;62.73242;933.791;;;;
2023/06/30 08:40:31;;;;;;;10.5;7.3;;;;;;;25.39;62.0957;933.8031;;;;
2023/06/30 08:42:54;;;;;;;10;7.3;;;;;;;25.25;61.06055;933.8002;;;;
2023/06/30 08:45:19;;;;;;;10.6;7.5;;;;;;;24.39;64.14941;933.7709;;;;
2023/06/30 08:47:46;;;;;;;11.1;7.8;;;;;;;24.45;62.89648;933.7123;;;;
2023/06/30 08:50:11;;;;;;;10.2;7.5;;;;;;;24.37;65.46484;933.7087;;;;
2023/06/30 08:52:40;;;;;;;11.9;7.7;;;;;;;24.3;66.88184;933.7521;;;;
2023/06/30 08:55:05;;;;;;;12.7;8.1;;;;;;;24.36;66.50098;933.7459;;;;
2023/06/30 08:57:31;;;;;;;9.4;7.1;;;;;;;24.7;65.5957;933.6573;;;;
2023/06/30 08:59:57;;;;;;;11.5;7.7;;;;;;;25.36;66.5791;933.6813;;;;
2023/06/30 09:02:24;;;;;;;11.8;7.4;;;;;;;25.73;60.88965;933.7769;;;;
2023/06/30 09:04:49;;;;;;;11;7.5;;;;;;;25.74;59.02441;933.7469;;;;
2023/06/30 09:07:16;;;;;;;10.2;7.2;;;;;;;25.06;60.78613;933.7693;;;;
2023/06/30 09:09:45;;;;;;;11.1;7.3;;;;;;;24.8;61.10547;933.796;;;;
2023/06/30 09:12:09;;;;;;;10.9;7.1;;;;;;;25.13;64.99805;933.7385;;;;
2023/06/30 09:14:35;;;;;;;11.1;7.4;;;;;;;25.57;62.47656;933.7587;;;;
2023/06/30 09:22:13;;;;;;;11.3;7.6;;;;;;;26.12;59.03906;933.772;;;;
2023/06/30 09:24:40;;;;;;;11.4;7.1;;;;;;;26.47;56.17383;933.7841;;;;
2023/06/30 09:27:05;;;;;;;11.9;7.6;;;;;;;26.59;58.6748;933.7797;;;;
2023/06/30 09:29:35;;;;;;;12.8;7.2;;;;;;;26.62;58.68945;933.8116;;;;
2023/06/30 09:32:00;;;;;;;13.1;7.8;;;;;;;26.19;61.94727;933.8071;;;;
2023/06/30 09:34:25;;;;;;;11.4;8;;;;;;;25.45;63.99414;933.8164;;;;
2023/06/30 09:36:50;;;;;;;12.4;7.9;;;;;;;25.12;65.58691;933.766;;;;
2023/06/30 09:39:15;;;;;;;11.1;7.6;;;;;;;24.82;68.1377;933.72;;;;
2023/06/30 09:41:42;;;;;;;13.3;8.8;;;;;;;24.44;69.91895;933.6552;;;;
2023/06/30 09:44:07;;;;;;;13;9.3;;;;;;;24.18;72.01074;933.6884;;;;
2023/06/30 09:46:33;;;;;;;15.5;10.5;;;;;;;23.74;73.56348;933.7332;;;;
2023/06/30 09:48:58;;;;;;;15.8;10.7;;;;;;;23.85;74.60547;933.646;;;;
2023/06/30 09:51:23;;;;;;;15.5;10.2;;;;;;;24.48;73.73242;933.7366;;;;
2023/06/30 09:53:49;;;;;;;15.5;10.2;;;;;;;25;74.25391;933.6387;;;;
2023/06/30 09:56:14;;;;;;;17.1;11.6;;;;;;;25.42;69.54004;933.5901;;;;
2023/06/30 09:58:39;;;;;;;19.1;12.8;;;;;;;25.73;68.59668;933.5394;;;;
2023/06/30 10:01:07;;;;;;;15.9;11.4;;;;;;;26.27;69.36426;933.5558;;;;
2023/06/30 10:03:32;;;;;;;17.4;11.9;;;;;;;26.63;67.10059;933.5136;;;;
2023/06/30 10:05:59;;;;;;;17.8;11.5;;;;;;;26.08;68.02344;933.4944;;;;
2023/06/30 10:08:24;;;;;;;17.6;11.8;;;;;;;26.07;67.63184;933.4969;;;;
2023/06/30 10:10:52;;;;;;;17.6;11.9;;;;;;;26.26;66.21582;933.4405;;;;
2023/06/30 10:13:17;;;;;;;19.6;12.8;;;;;;;25.94;66.98633;933.4753;;;;
2023/06/30 10:15:50;;;;;;;21;13.4;;;;;;;26.3;64.20996;933.4841;;;;
2023/06/30 10:18:17;;;;;;;20.1;12.8;;;;;;;26.43;66.99805;933.4648;;;;
2023/06/30 10:20:42;;;;;;;18.3;13.1;;;;;;;26.12;69.2002;933.4495;;;;
2023/06/30 10:23:08;;;;;;;20.5;13.9;;;;;;;25.9;68.11328;933.4769;;;;
2023/06/30 10:25:33;;;;;;;19.4;14;;;;;;;25.8;68.3457;933.4727;;;;
2023/06/30 10:27:58;;;;;;;21.6;14.9;;;;;;;25.95;63.84082;933.4991;;;;
2023/06/30 10:30:26;;;;;;;22.4;14.4;;;;;;;25.32;66.51367;933.546;;;;
2023/06/30 10:32:51;;;;;;;20.7;14;;;;;;;24.81;67.4043;933.5383;;;;
2023/06/30 10:35:21;;;;;;;21.4;14.5;;;;;;;24.47;68.17871;933.5527;;;;
2023/06/30 10:37:47;;;;;;;19.8;13.8;;;;;;;24.03;69.4668;933.6226;;;;
2023/06/30 10:40:15;;;;;;;22.2;15.2;;;;;;;23.82;71.41113;933.6008;;;;
2023/06/30 10:42:40;;;;;;;23;14.5;;;;;;;23.35;73.96973;933.6696;;;;
2023/06/30 10:45:05;;;;;;;21.2;14.3;;;;;;;23.19;75.15332;933.6688;;;;
2023/06/30 10:47:33;;;;;;;22.5;14.6;;;;;;;23.01;76.95508;933.6403;;;;
2023/06/30 10:49:58;;;;;;;22;14.3;;;;;;;22.82;79.63281;933.6935;;;;
2023/06/30 10:52:24;;;;;;;21.8;14.4;;;;;;;22.83;80.39941;933.707;;;;
2023/06/30 10:54:49;;;;;;;21.8;14.4;;;;;;;22.87;80.72266;933.6345;;;;
2023/06/30 10:57:15;;;;;;;21.8;14.1;;;;;;;22.9;79.51855;933.6561;;;;
2023/06/30 10:59:40;;;;;;;22.3;14.1;;;;;;;22.78;81.60059;933.6605;;;;
2023/06/30 11:02:07;;;;;;;23.1;14.6;;;;;;;22.57;81.98535;933.6753;;;;
2023/06/30 11:04:32;;;;;;;20.2;14.1;;;;;;;22.46;84.12012;933.6747;;;;
2023/06/30 11:06:59;;;;;;;21.1;14.1;;;;;;;22.76;83.55664;933.6738;;;;
2023/06/30 11:09:24;;;;;;;22;14.5;;;;;;;22.99;81.83691;933.6616;;;;
2023/06/30 11:11:50;;;;;;;20.6;13.9;;;;;;;23.25;81.70898;933.6916;;;;
2023/06/30 11:14:15;;;;;;;20.9;14.3;;;;;;;23.46;78.41895;933.7089;;;;
2023/06/30 11:16:40;;;;;;;21.4;14.3;;;;;;;23.63;80.88379;933.6742;;;;
2023/06/30 11:19:09;;;;;;;23.9;14.7;;;;;;;23.7;78.36816;933.7598;;;;
2023/06/30 11:22:08;;;;;;;21.2;14.1;;;;;;;23.56;78.16797;933.6878;;;;
2023/06/30 11:24:37;;;;;;;20.7;14.5;;;;;;;23.75;78.57715;933.6003;;;;
2023/06/30 11:27:04;;;;;;;22.8;14.2;;;;;;;23.99;75.65234;933.6633;;;;
2023/06/30 11:29:29;;;;;;;21.3;14.2;;;;;;;23.92;75.73535;933.5938;;;;
2023/06/30 11:31:54;;;;;;;18.7;12.5;;;;;;;24.04;74.24805;933.6774;;;;
2023/06/30 11:34:21;;;;;;;20.1;12.8;;;;;;;23.97;74.61328;933.6588;;;;
2023/06/30 11:36:46;;;;;;;17.5;13;;;;;;;24.02;72.62012;933.6384;;;;
2023/06/30 11:39:12;;;;;;;18.4;12.7;;;;;;;23.97;74.76563;933.627;;;;
2023/06/30 11:41:38;;;;;;;18.8;12.6;;;;;;;24.37;70.46094;933.5955;;;;
2023/06/30 11:44:03;;;;;;;19.9;13;;;;;;;24.76;71.92773;933.5522;;;;
2023/06/30 11:46:35;;;;;;;16.3;11.7;;;;;;;25.15;67.50488;933.5311;;;;
2023/06/30 11:48:53;;;;;;;15.9;10.6;;;;;;;25.26;66.8125;933.4675;;;;
2023/06/30 11:51:22;;;;;;;16.7;10.7;;;;;;;25.59;68.79883;933.4849;;;;
2023/06/30 11:53:47;;;;;;;15.3;10.1;;;;;;;25.96;65.36719;933.4467;;;;
2023/06/30 11:56:13;;;;;;;18.3;12.3;;;;;;;26.35;66.85742;933.4562;;;;
2023/06/30 11:58:38;;;;;;;17.5;12.1;;;;;;;25.65;69.16309;933.4197;;;;
2023/06/30 12:01:05;;;;;;;15.1;10.6;;;;;;;26.03;65.34277;933.3978;;;;
2023/06/30 12:03:30;;;;;;;16.4;10.9;;;;;;;26.38;63.38184;933.38;;;;
2023/06/30 12:05:55;;;;;;;16.4;10.9;;;;;;;25.38;66.47559;933.3814;;;;
2023/06/30 12:08:20;;;;;;;17.5;12.1;;;;;;;24.53;70.99414;933.4053;;;;
2023/06/30 12:10:45;;;;;;;18;12.1;;;;;;;23.86;73.08789;933.3502;;;;
2023/06/30 12:13:11;;;;;;;17;11.4;;;;;;;23.48;75.68359;933.3638;;;;
2023/06/30 12:19:15;;;;;;;19.6;12.1;;;;;;;23.61;77.70508;933.3572;;;;
2023/06/30 12:21:39;;;;;;;16.3;11.3;;;;;;;23.48;77.89258;933.3422;;;;
2023/06/30 12:24:09;;;;;;;16.4;10.4;;;;;;;23.55;77.51758;933.3901;;;;
2023/06/30 12:26:34;;;;;;;16.2;10.8;;;;;;;23.48;75.55469;933.3484;;;;
2023/06/30 12:29:00;;;;;;;15.7;10.6;;;;;;;23.33;75.92969;933.3617;;;;
2023/06/30 12:31:25;;;;;;;16.7;10.8;;;;;;;23.45;76.80664;933.3915;;;;
2023/06/30 12:33:53;;;;;;;18.8;11.4;;;;;;;23.5;76.83887;933.338;;;;
2023/06/30 12:36:17;;;;;;;17.4;11.9;;;;;;;23.45;76.23047;933.3112;;;;
2023/06/30 12:38:43;;;;;;;17.4;12.1;;;;;;;23.28;78.75293;933.3635;;;;
2023/06/30 12:41:08;;;;;;;19.3;12.6;;;;;;;23.26;76.33887;933.3036;;;;
2023/06/30 12:43:36;;;;;;;17.7;12;;;;;;;23.21;78.74219;933.337;;;;
2023/06/30 12:46:01;;;;;;;16.8;11.5;;;;;;;23.05;77.40723;933.2913;;;;
2023/06/30 12:48:28;;;;;;;14.8;10.4;;;;;;;22.97;81.55176;933.3124;;;;
2023/06/30 12:50:56;;;;;;;15.9;10.2;;;;;;;22.74;82.95215;933.308;;;;
2023/06/30 12:53:18;;;;;;;16.2;10.8;;;;;;;22.69;83.85938;933.2486;;;;
2023/06/30 12:55:46;;;;;;;16.2;9.7;;;;;;;22.44;85.04395;933.2374;;;;
2023/06/30 12:58:11;;;;;;;15.2;10.3;;;;;;;22.45;86.67773;933.2629;;;;
2023/06/30 13:00:36;;;;;;;17.1;11.5;;;;;;;22.38;86.30078;933.2567;;;;
2023/06/30 13:03:03;;;;;;;15.4;10;;;;;;;22.32;85.24414;933.275;;;;
2023/06/30 13:05:28;;;;;;;17.3;10.8;;;;;;;22.1;88.23926;933.2891;;;;
2023/06/30 13:07:57;;;;;;;17.1;11;;;;;;;21.99;89.58887;933.303;;;;
2023/06/30 13:10:22;;;;;;;20.4;11.4;;;;;;;21.7;90.01074;933.3331;;;;
2023/06/30 13:12:49;;;;;;;16.3;10.7;;;;;;;21.42;90.5625;933.3303;;;;
2023/06/30 13:15:15;;;;;;;16.4;10.7;;;;;;;21.35;92.02246;933.3428;;;;
2023/06/30 13:17:41;;;;;;;18.1;11.1;;;;;;;21.29;91.46875;933.3147;;;;
2023/06/30 13:20:07;;;;;;;15.8;10.9;;;;;;;21.34;91.02344;933.3069;;;;
2023/06/30 13:22:34;;;;;;;16.3;11.3;;;;;;;21.43;90.77441;933.3188;;;;
2023/06/30 13:24:59;;;;;;;15.7;10.5;;;;;;;21.43;89.70996;933.3731;;;;
2023/06/30 13:27:26;;;;;;;22.5;10.9;;;;;;;21.43;89.81543;933.3123;;;;
2023/06/30 13:30:10;;;;;;;16;10.6;;;;;;;21.38;90.19238;933.4388;;;;
2023/06/30 13:32:35;;;;;;;16.6;11.2;;;;;;;21.28;92.33496;933.4414;;;;
2023/06/30 13:35:00;;;;;;;16;10.7;;;;;;;21.03;93.93066;933.4763;;;;
2023/06/30 13:37:29;;;;;;;17.3;10.9;;;;;;;20.83;92.8252;933.4666;;;;
2023/06/30 13:39:59;;;;;;;16.2;11;;;;;;;20.8;94.46777;933.5031;;;;
2023/06/30 13:42:24;;;;;;;16.5;11.3;;;;;;;20.86;95.05371;933.493;;;;
2023/06/30 13:44:49;;;;;;;17.3;11.2;;;;;;;20.78;93.48047;933.5064;;;;
2023/06/30 13:47:15;;;;;;;15.2;10.7;;;;;;;20.62;94.24219;933.5515;;;;
2023/06/30 13:49:41;;;;;;;15.5;10.2;;;;;;;20.56;95.81738;933.5539;;;;
2023/06/30 13:52:06;;;;;;;16.8;11;;;;;;;20.52;95.61133;933.5367;;;;
2023/06/30 13:54:32;;;;;;;16;10.6;;;;;;;20.28;95.20801;933.5625;;;;
2023/06/30 13:56:57;;;;;;;14.9;10.3;;;;;;;20.19;95.87695;933.4894;;;;
2023/06/30 13:59:23;;;;;;;16.2;10.5;;;;;;;20.1;95.51953;933.4739;;;;
2023/06/30 14:01:48;;;;;;;13.6;9.6;;;;;;;20.15;94.83105;933.3994;;;;
2023/06/30 14:04:14;;;;;;;16.2;10.4;;;;;;;20.26;93.19629;933.4565;;;;
2023/06/30 14:06:39;;;;;;;14.2;9.7;;;;;;;20.32;93.39453;933.4261;;;;
2023/06/30 14:09:09;;;;;;;17.1;10.3;;;;;;;20.31;94.83105;933.3923;;;;
2023/06/30 14:11:31;;;;;;;16.9;10.7;;;;;;;20.3;94.0332;933.392;;;;
2023/06/30 14:14:03;;;;;;;16.6;10.7;;;;;;;20.48;93.125;933.3577;;;;
2023/06/30 14:16:24;;;;;;;18.5;10.2;;;;;;;20.48;93.66211;933.3683;;;;
2023/06/30 14:18:49;;;;;;;15.3;10.3;;;;;;;20.5;93.86523;933.3223;;;;
2023/06/30 14:21:14;;;;;;;18.6;10.5;;;;;;;20.51;93.40137;933.3145;;;;
2023/06/30 14:23:41;;;;;;;15.5;10.1;;;;;;;20.54;93.25684;933.3287;;;;